createdAt,value
2022-09-11T00:00:29.618Z,96523.66
2022-09-11T00:03:02.668Z,96522.88
2022-09-11T00:05:39.367Z,96522.53
2022-09-11T00:08:14.284Z,96520.56
2022-09-11T00:10:48.776Z,96523.28
2022-09-11T00:13:24.471Z,96524.41
2022-09-11T00:15:57.395Z,96524.00
2022-09-11T00:18:30.868Z,96520.88
2022-09-11T00:21:05.566Z,96524.31
2022-09-11T00:23:38.477Z,96520.44
2022-09-11T00:26:11.852Z,96521.56
2022-09-11T00:28:46.973Z,96521.16
2022-09-11T00:31:22.066Z,96521.88
2022-09-11T00:33:55.249Z,96516.84
2022-09-11T00:36:31.572Z,96520.69
2022-09-11T00:39:05.483Z,96516.44
2022-09-11T00:41:40.355Z,96518.34
2022-09-11T00:44:51.061Z,96516.06
2022-09-11T00:47:25.261Z,96509.88
2022-09-11T00:50:07.859Z,96511.06
2022-09-11T00:52:52.846Z,96504.50
2022-09-11T00:55:28.637Z,96509.19
2022-09-11T00:58:05.497Z,96508.47
2022-09-11T01:00:40.595Z,96501.53
2022-09-11T01:03:15.035Z,96496.97
2022-09-11T01:05:48.411Z,96508.22
2022-09-11T01:08:22.761Z,96493.91
2022-09-11T01:11:05.940Z,96494.72
2022-09-11T01:13:47.210Z,96495.91
2022-09-11T01:16:31.565Z,96495.13
2022-09-11T01:19:19.487Z,96492.06
2022-09-11T01:22:31.493Z,96488.22
2022-09-11T01:25:19.453Z,96494.81
2022-09-11T01:27:55.842Z,96494.81
2022-09-11T01:30:34.614Z,96501.00
2022-09-11T01:33:18.595Z,96507.19
2022-09-11T01:35:57.841Z,96509.09
2022-09-11T01:38:36.428Z,96510.66
2022-09-11T01:41:14.331Z,96505.63
2022-09-11T01:43:53.195Z,96507.19
2022-09-11T01:46:29.075Z,96508.31
2022-09-11T01:49:07.832Z,96501.78
2022-09-11T01:51:42.233Z,96495.97
2022-09-11T01:54:19.813Z,96500.59
2022-09-11T01:56:57.835Z,96492.84
2022-09-11T01:59:38.137Z,96500.97
2022-09-11T02:02:15.239Z,96494.38
2022-09-11T02:04:54.733Z,96491.25
2022-09-11T02:07:32.749Z,96493.91
2022-09-11T02:10:10.923Z,96491.56
2022-09-11T02:12:51.360Z,96486.09
2022-09-11T02:15:32.705Z,96490.72
2022-09-11T02:18:13.164Z,96486.09
2022-09-11T02:20:47.668Z,96477.56
2022-09-11T02:23:22.927Z,96483.75
2022-09-11T02:25:56.291Z,96487.59
2022-09-11T02:28:29.587Z,96486.81
2022-09-11T02:31:04.463Z,96495.31
2022-09-11T02:33:39.065Z,96493.75
2022-09-11T02:36:27.232Z,96500.38
2022-09-11T02:39:17.078Z,96498.44
2022-09-11T02:42:16.548Z,96506.94
2022-09-11T02:44:56.009Z,96506.22
2022-09-11T02:47:43.506Z,96505.88
2022-09-11T02:50:29.716Z,96508.22
2022-09-11T02:53:08.926Z,96507.84
2022-09-11T02:55:55.836Z,96505.16
2022-09-11T02:58:33.549Z,96506.31
2022-09-11T03:01:08.838Z,96502.47
2022-09-11T03:03:46.619Z,96504.81
2022-09-11T03:06:22.136Z,96500.97
2022-09-11T03:08:55.819Z,96492.06
2022-09-11T03:11:28.989Z,96500.59
2022-09-11T03:14:01.830Z,96503.31
2022-09-11T03:16:34.699Z,96495.97
2022-09-11T03:19:09.707Z,96500.22
2022-09-11T03:21:42.957Z,96504.09
2022-09-11T03:24:17.217Z,96493.28
2022-09-11T03:26:50.409Z,96494.06
2022-09-11T03:29:23.330Z,96492.09
2022-09-11T03:31:58.920Z,96491.34
2022-09-11T03:34:33.823Z,96489.41
2022-09-11T03:37:06.607Z,96490.97
2022-09-11T03:39:39.487Z,96489.41
2022-09-11T03:42:13.091Z,96488.25
2022-09-11T03:44:49.130Z,96496.38
2022-09-11T03:47:22.321Z,96491.38
2022-09-11T03:49:56.889Z,96495.66
2022-09-11T03:52:30.515Z,96493.31
2022-09-11T03:55:03.426Z,96486.75
2022-09-11T03:57:36.610Z,96486.75
2022-09-11T04:00:11.356Z,96497.19
2022-09-11T04:02:44.136Z,96494.50
2022-09-11T04:05:18.463Z,96491.78
2022-09-11T04:07:53.266Z,96494.50
2022-09-11T04:10:26.202Z,96492.16
2022-09-11T04:12:59.338Z,96488.31
2022-09-11T04:15:33.017Z,96485.97
2022-09-11T04:18:07.265Z,96492.94
2022-09-11T04:20:41.532Z,96489.47
2022-09-11T04:23:14.289Z,96502.97
2022-09-11T04:25:47.652Z,96487.91
2022-09-11T04:28:22.458Z,96484.06
2022-09-11T04:30:57.290Z,96479.44
2022-09-11T04:33:30.058Z,96482.13
2022-09-11T04:36:08.030Z,96481.75
2022-09-11T04:38:42.100Z,96486.38
2022-09-11T04:41:16.270Z,96486.34
2022-09-11T04:43:49.256Z,96492.88
2022-09-11T04:46:22.095Z,96492.50
2022-09-11T04:48:59.429Z,96496.69
2022-09-11T04:51:35.683Z,96499.75
2022-09-11T04:54:08.886Z,96500.09
2022-09-11T04:56:41.718Z,96505.88
2022-09-11T04:59:16.598Z,96506.22
2022-09-11T05:01:49.774Z,96504.25
2022-09-11T05:04:26.170Z,96510.03
2022-09-11T05:07:01.141Z,96513.53
2022-09-11T05:09:36.330Z,96512.75
2022-09-11T05:12:10.767Z,96509.25
2022-09-11T05:14:43.535Z,96516.22
2022-09-11T05:17:16.404Z,96505.03
2022-09-11T05:19:49.424Z,96500.41
2022-09-11T05:22:25.135Z,96502.75
2022-09-11T05:24:58.409Z,96511.63
2022-09-11T05:27:31.378Z,96505.09
2022-09-11T05:30:04.263Z,96519.41
2022-09-11T05:32:37.200Z,96516.34
2022-09-11T05:35:10.436Z,96523.31
2022-09-11T05:37:44.655Z,96522.94
2022-09-11T05:40:17.720Z,96522.59
2022-09-11T05:42:51.185Z,96534.22
2022-09-11T05:45:25.102Z,96533.84
2022-09-11T05:47:58.107Z,96539.31
2022-09-11T05:50:32.844Z,96536.25
2022-09-11T05:53:07.049Z,96535.13
2022-09-11T05:55:41.031Z,96551.78
2022-09-11T05:58:13.939Z,96552.59
2022-09-11T06:00:47.713Z,96565.03
2022-09-11T06:03:22.187Z,96572.41
2022-09-11T06:05:54.963Z,96574.03
2022-09-11T06:08:29.727Z,96583.34
2022-09-11T06:11:07.176Z,96579.16
2022-09-11T06:13:41.813Z,96587.31
2022-09-11T06:16:18.521Z,96588.91
2022-09-11T06:18:54.783Z,96597.88
2022-09-11T06:21:29.248Z,96600.97
2022-09-11T06:24:04.259Z,96602.56
2022-09-11T06:26:37.314Z,96603.00
2022-09-11T06:29:14.571Z,96606.88
2022-09-11T06:31:51.307Z,96606.91
2022-09-11T06:34:24.271Z,96600.38
2022-09-11T06:36:57.132Z,96601.22
2022-09-11T06:39:31.521Z,96607.44
2022-09-11T06:42:04.619Z,96604.78
2022-09-11T06:44:37.395Z,96600.94
2022-09-11T06:47:10.220Z,96603.34
2022-09-11T06:49:43.013Z,96596.03
2022-09-11T06:52:15.823Z,96592.22
2022-09-11T06:54:50.582Z,96590.72
2022-09-11T06:57:23.495Z,96588.47
2022-09-11T06:59:57.809Z,96581.59
2022-09-11T07:02:30.607Z,96581.66
2022-09-11T07:05:03.789Z,96582.91
2022-09-11T07:07:36.589Z,96582.94
2022-09-11T07:10:12.440Z,96584.56
2022-09-11T07:12:45.258Z,96581.53
2022-09-11T07:15:18.343Z,96583.91
2022-09-11T07:17:51.370Z,96582.44
2022-09-11T07:20:24.396Z,96582.91
2022-09-11T07:22:57.807Z,96586.47
2022-09-11T07:25:32.018Z,96576.88
2022-09-11T07:28:05.137Z,96579.63
2022-09-11T07:30:38.019Z,96579.28
2022-09-11T07:33:11.020Z,96590.97
2022-09-11T07:35:43.829Z,96586.75
2022-09-11T07:38:16.607Z,96586.00
2022-09-11T07:40:54.448Z,96596.91
2022-09-11T07:43:27.474Z,96599.66
2022-09-11T07:46:00.346Z,96602.47
2022-09-11T07:48:34.235Z,96606.38
2022-09-11T07:51:09.377Z,96612.19
2022-09-11T07:53:44.292Z,96604.44
2022-09-11T07:56:21.114Z,96600.19
2022-09-11T07:58:56.032Z,96602.53
2022-09-11T08:01:30.513Z,96599.81
2022-09-11T08:04:05.568Z,96602.53
2022-09-11T08:06:39.645Z,96604.06
2022-09-11T08:09:15.629Z,96606.78
2022-09-11T08:11:50.052Z,96606.00
2022-09-11T08:14:24.766Z,96623.50
2022-09-11T08:16:57.915Z,96610.69
2022-09-11T08:19:32.096Z,96609.50
2022-09-11T08:22:05.458Z,96619.59
2022-09-11T08:24:38.472Z,96607.94
2022-09-11T08:27:12.922Z,96606.00
2022-09-11T08:29:45.898Z,96617.28
2022-09-11T08:32:18.745Z,96613.38
2022-09-11T08:34:51.564Z,96613.78
2022-09-11T08:37:24.430Z,96609.53
2022-09-11T08:39:57.304Z,96603.69
2022-09-11T08:42:31.854Z,96617.69
2022-09-11T08:45:08.504Z,96618.09
2022-09-11T08:47:42.975Z,96615.75
2022-09-11T08:50:21.235Z,96615.78
2022-09-11T08:52:55.017Z,96606.81
2022-09-11T08:55:35.116Z,96610.34
2022-09-11T08:58:18.876Z,96609.16
2022-09-11T09:00:59.035Z,96605.25
2022-09-11T09:03:53.775Z,96610.72
2022-09-11T09:06:43.879Z,96615.38
2022-09-11T09:12:00.621Z,96602.19
2022-09-11T09:15:11.996Z,96613.84
2022-09-11T09:17:50.240Z,96611.09
2022-09-11T09:20:27.304Z,96609.94
2022-09-11T09:23:04.866Z,96610.31
2022-09-11T09:25:41.236Z,96611.44
2022-09-11T09:28:21.896Z,96603.28
2022-09-11T09:30:58.099Z,96609.88
2022-09-11T09:33:34.660Z,96603.63
2022-09-11T09:36:19.352Z,96596.91
2022-09-11T09:38:53.742Z,96604.22
2022-09-11T09:41:59.188Z,96601.00
2022-09-11T09:44:46.325Z,96602.00
2022-09-11T09:47:19.627Z,96592.47
2022-09-11T09:49:54.879Z,96599.69
2022-09-11T09:52:36.238Z,96596.06
2022-09-11T09:55:16.663Z,96589.25
2022-09-11T09:57:50.434Z,96584.81
2022-09-11T10:00:23.438Z,96585.06
2022-09-11T10:02:58.271Z,96581.03
2022-09-11T10:05:34.870Z,96579.03
2022-09-11T10:08:25.425Z,96575.03
2022-09-11T10:11:00.174Z,96585.16
2022-09-11T10:13:35.058Z,96575.81
2022-09-11T10:16:22.229Z,96587.53
2022-09-11T10:18:56.985Z,96576.22
2022-09-11T10:21:33.597Z,96578.19
2022-09-11T10:24:24.036Z,96582.06
2022-09-11T10:26:58.094Z,96579.69
2022-09-11T10:29:32.134Z,96570.25
2022-09-11T10:32:05.804Z,96572.13
2022-09-11T10:34:42.029Z,96575.19
2022-09-11T10:37:29.925Z,96568.84
2022-09-11T10:40:08.255Z,96574.59
2022-09-11T10:42:41.567Z,96571.84
2022-09-11T10:45:17.761Z,96573.75
2022-09-11T10:47:50.622Z,96568.63
2022-09-11T10:50:26.900Z,96572.13
2022-09-11T10:53:21.410Z,96572.91
2022-09-11T10:56:01.788Z,96572.91
2022-09-11T10:58:37.634Z,96571.81
2022-09-11T11:01:10.672Z,96577.25
2022-09-11T11:03:43.619Z,96566.75
2022-09-11T11:06:32.651Z,96571.44
2022-09-11T11:09:28.961Z,96572.22
2022-09-11T11:12:32.056Z,96566.75
2022-09-11T11:15:29.507Z,96564.78
2022-09-11T11:18:27.858Z,96573.03
2022-09-11T11:21:12.896Z,96566.88
2022-09-11T11:24:03.964Z,96563.50
2022-09-11T11:27:00.645Z,96563.41
2022-09-11T11:30:03.540Z,96558.53
2022-09-11T11:33:05.161Z,96559.16
2022-09-11T11:35:47.108Z,96557.00
2022-09-11T11:38:26.003Z,96562.63
2022-09-11T11:41:04.474Z,96556.50
2022-09-11T11:43:41.908Z,96558.94
2022-09-11T11:46:18.150Z,96547.34
2022-09-11T11:48:56.485Z,96545.09
2022-09-11T11:51:33.631Z,96551.00
2022-09-11T11:54:14.679Z,96547.53
2022-09-11T11:56:51.842Z,96543.31
2022-09-11T11:59:32.129Z,96547.22
2022-09-11T12:02:18.758Z,96547.28
2022-09-11T12:04:57.868Z,96541.81
2022-09-11T12:07:32.633Z,96539.47
2022-09-11T12:10:08.567Z,96547.66
2022-09-11T12:12:47.783Z,96538.31
2022-09-11T12:15:24.054Z,96535.22
2022-09-11T12:18:02.672Z,96524.66
2022-09-11T12:20:39.251Z,96531.63
2022-09-11T12:23:55.905Z,96527.69
2022-09-11T12:26:30.530Z,96530.34
2022-09-11T12:29:51.730Z,96525.59
2022-09-11T12:32:47.508Z,96522.78
2022-09-11T12:35:28.760Z,96516.09
2022-09-11T12:38:13.264Z,96517.63
2022-09-11T12:40:54.267Z,96525.00
2022-09-11T12:43:47.609Z,96518.38
2022-09-11T12:47:12.653Z,96511.34
2022-09-11T12:49:56.084Z,96499.69
2022-09-11T12:52:42.868Z,96503.59
2022-09-11T12:55:39.822Z,96495.81
2022-09-11T12:58:28.692Z,96495.03
2022-09-11T13:01:07.124Z,96488.03
2022-09-11T13:03:50.347Z,96491.16
2022-09-11T13:06:27.533Z,96485.31
2022-09-11T13:09:02.452Z,96485.72
2022-09-11T13:11:37.834Z,96482.22
2022-09-11T13:14:57.021Z,96472.84
2022-09-11T13:17:31.992Z,96481.44
2022-09-11T13:20:22.648Z,96472.84
2022-09-11T13:23:11.708Z,96476.75
2022-09-11T13:25:45.100Z,96468.56
2022-09-11T13:28:23.304Z,96471.31
2022-09-11T13:31:02.100Z,96472.44
2022-09-11T13:33:35.356Z,96470.09
2022-09-11T13:36:14.211Z,96469.25
2022-09-11T13:38:51.865Z,96468.44
2022-09-11T13:41:29.802Z,96467.63
2022-09-11T13:44:03.573Z,96461.34
2022-09-11T13:46:36.536Z,96459.00
2022-09-11T13:49:37.339Z,96461.31
2022-09-11T13:52:14.025Z,96460.13
2022-09-11T13:54:51.927Z,96456.59
2022-09-11T13:57:28.314Z,96454.25
2022-09-11T14:00:01.334Z,96456.59
2022-09-11T14:02:49.546Z,96441.34
2022-09-11T14:05:26.266Z,96446.78
2022-09-11T14:08:02.402Z,96442.53
2022-09-11T14:10:47.051Z,96445.22
2022-09-11T14:13:27.693Z,96438.94
2022-09-11T14:16:04.428Z,96435.38
2022-09-11T14:18:42.295Z,96438.50
2022-09-11T14:21:19.195Z,96432.63
2022-09-11T14:23:53.730Z,96430.31
2022-09-11T14:26:41.456Z,96432.25
2022-09-11T14:29:24.728Z,96432.31
2022-09-11T14:32:31.208Z,96428.84
2022-09-11T14:35:07.621Z,96411.38
2022-09-11T14:37:43.997Z,96420.78
2022-09-11T14:40:19.471Z,96416.53
2022-09-11T14:42:52.440Z,96415.00
2022-09-11T14:45:26.574Z,96410.78
2022-09-11T14:48:00.722Z,96418.63
2022-09-11T14:50:34.987Z,96417.13
2022-09-11T14:53:07.789Z,96414.09
2022-09-11T14:55:40.754Z,96411.78
2022-09-11T14:58:13.558Z,96416.53
2022-09-11T15:00:46.518Z,96414.22
2022-09-11T15:03:19.502Z,96408.81
2022-09-11T15:05:56.503Z,96411.94
2022-09-11T15:08:29.424Z,96408.91
2022-09-11T15:11:02.287Z,96412.03
2022-09-11T15:13:35.536Z,96403.09
2022-09-11T15:16:09.506Z,96398.03
2022-09-11T15:18:42.356Z,96396.16
2022-09-11T15:21:16.607Z,96391.09
2022-09-11T15:23:50.091Z,96391.13
2022-09-11T15:26:22.986Z,96391.16
2022-09-11T15:28:55.959Z,96387.25
2022-09-11T15:31:30.511Z,96386.88
2022-09-11T15:34:05.845Z,96390.78
2022-09-11T15:36:41.619Z,96391.22
2022-09-11T15:39:19.350Z,96401.34
2022-09-11T15:41:52.191Z,96385.41
2022-09-11T15:44:27.121Z,96386.56
2022-09-11T15:47:00.243Z,96381.97
2022-09-11T15:49:33.112Z,96382.75
2022-09-11T15:52:07.629Z,96376.53
2022-09-11T15:54:40.586Z,96382.81
2022-09-11T15:57:13.470Z,96377.38
2022-09-11T15:59:46.251Z,96377.44
2022-09-11T16:02:21.708Z,96368.09
2022-09-11T16:04:54.525Z,96377.84
2022-09-11T16:07:29.032Z,96374.34
2022-09-11T16:10:01.878Z,96368.13
2022-09-11T16:12:34.815Z,96373.56
2022-09-11T16:15:10.537Z,96365.81
2022-09-11T16:17:43.390Z,96367.78
2022-09-11T16:20:16.360Z,96363.91
2022-09-11T16:22:50.857Z,96369.34
2022-09-11T16:25:23.722Z,96360.03
2022-09-11T16:27:58.643Z,96361.97
2022-09-11T16:30:54.455Z,96359.28
2022-09-11T16:33:24.411Z,96358.91
2022-09-11T16:36:00.170Z,96364.38
2022-09-11T16:38:36.941Z,96367.50
2022-09-11T16:41:12.724Z,96369.47
2022-09-11T16:43:49.729Z,96366.00
2022-09-11T16:46:25.216Z,96372.66
2022-09-11T16:49:01.635Z,96364.50
2022-09-11T16:51:35.441Z,96359.84
2022-09-11T16:54:09.750Z,96361.81
2022-09-11T16:56:45.878Z,96358.34
2022-09-11T16:59:19.914Z,96353.69
2022-09-11T17:01:56.852Z,96347.91
2022-09-11T17:04:29.682Z,96348.69
2022-09-11T17:07:02.586Z,96340.97
2022-09-11T17:09:37.123Z,96356.13
2022-09-11T17:12:11.596Z,96349.56
2022-09-11T17:14:44.993Z,96348.81
2022-09-11T17:17:17.815Z,96348.03
2022-09-11T17:19:51.412Z,96344.56
2022-09-11T17:22:24.309Z,96345.75
2022-09-11T17:27:31.482Z,96353.16
2022-09-11T17:30:05.152Z,96344.22
2022-09-11T17:32:38.759Z,96351.25
2022-09-11T17:35:12.356Z,96346.22
2022-09-11T17:37:46.061Z,96350.91
2022-09-11T17:40:20.659Z,96351.31
2022-09-11T17:42:53.486Z,96351.31
2022-09-11T17:45:26.433Z,96348.22
2022-09-11T17:48:01.190Z,96354.47
2022-09-11T17:50:35.574Z,96354.50
2022-09-11T17:53:08.386Z,96357.63
2022-09-11T17:55:42.715Z,96347.94
2022-09-11T17:58:15.571Z,96356.88
2022-09-11T18:00:48.469Z,96361.53
2022-09-11T18:03:22.821Z,96358.84
2022-09-11T18:05:56.250Z,96360.41
2022-09-11T18:08:31.299Z,96366.97
2022-09-11T18:11:05.780Z,96364.25
2022-09-11T18:13:38.610Z,96368.94
2022-09-11T18:16:12.591Z,96365.03
2022-09-11T18:18:45.417Z,96359.97
2022-09-11T18:21:18.501Z,96368.13
2022-09-11T18:23:51.453Z,96364.63
2022-09-11T18:26:29.688Z,96373.13
2022-09-11T18:29:05.231Z,96368.50
2022-09-11T18:31:40.582Z,96378.16
2022-09-11T18:34:15.365Z,96384.34
2022-09-11T18:36:48.893Z,96387.03
2022-09-11T18:39:22.643Z,96378.06
2022-09-11T18:41:57.097Z,96386.97
2022-09-11T18:44:30.183Z,96387.31
2022-09-11T18:47:02.972Z,96393.09
2022-09-11T18:49:35.853Z,96391.91
2022-09-11T18:52:09.935Z,96398.88
2022-09-11T18:54:42.722Z,96405.41
2022-09-11T18:57:17.262Z,96404.56
2022-09-11T18:59:52.355Z,96400.63
2022-09-11T19:02:25.141Z,96407.53
2022-09-11T19:04:57.881Z,96408.59
2022-09-11T19:07:32.479Z,96418.59
2022-09-11T19:10:07.404Z,96413.09
2022-09-11T19:12:42.062Z,96419.97
2022-09-11T19:15:14.911Z,96411.34
2022-09-11T19:17:49.545Z,96418.25
2022-09-11T19:20:22.474Z,96413.50
2022-09-11T19:22:58.668Z,96404.50
2022-09-11T19:25:36.155Z,96410.59
2022-09-11T19:28:11.991Z,96411.63
2022-09-11T19:30:45.021Z,96411.91
2022-09-11T19:33:17.941Z,96404.44
2022-09-11T19:35:56.467Z,96406.28
2022-09-11T19:38:31.028Z,96410.44
2022-09-11T19:41:05.564Z,96412.63
2022-09-11T19:43:42.399Z,96406.72
2022-09-11T19:46:16.887Z,96418.94
2022-09-11T19:48:49.905Z,96420.00
2022-09-11T19:51:25.177Z,96413.31
2022-09-11T19:54:00.491Z,96409.69
2022-09-11T19:56:38.471Z,96410.75
2022-09-11T19:59:14.290Z,96409.88
2022-09-11T20:01:47.413Z,96406.66
2022-09-11T20:04:20.254Z,96420.03
2022-09-11T20:09:31.529Z,96422.50
2022-09-11T20:12:04.968Z,96424.72
2022-09-11T20:14:42.836Z,96416.16
2022-09-11T20:17:15.896Z,96409.06
2022-09-11T20:19:48.681Z,96410.16
2022-09-11T20:22:22.144Z,96406.56
2022-09-11T20:24:54.997Z,96413.03
2022-09-11T20:27:28.962Z,96417.16
2022-09-11T20:30:03.629Z,96418.59
2022-09-11T20:32:38.906Z,96418.09
2022-09-11T20:35:12.263Z,96421.41
2022-09-11T20:37:45.045Z,96419.81
2022-09-11T20:40:18.060Z,96417.00
2022-09-11T20:42:50.852Z,96423.44
2022-09-11T20:45:25.374Z,96417.56
2022-09-11T20:47:58.261Z,96418.97
2022-09-11T20:50:31.372Z,96416.56
2022-09-11T20:53:04.197Z,96415.31
2022-09-11T20:55:37.244Z,96418.25
2022-09-11T20:58:10.439Z,96412.03
2022-09-11T21:00:46.026Z,96407.69
2022-09-11T21:03:18.799Z,96416.41
2022-09-11T21:05:51.913Z,96412.09
2022-09-11T21:08:25.739Z,96412.03
2022-09-11T21:11:03.132Z,96410.41
2022-09-11T21:13:36.829Z,96415.25
2022-09-11T21:16:12.985Z,96417.91
2022-09-11T21:18:48.234Z,96417.38
2022-09-11T21:21:22.302Z,96408.81
2022-09-11T21:23:56.071Z,96422.94
2022-09-11T21:26:30.083Z,96422.09
2022-09-11T21:29:05.512Z,96418.53
2022-09-11T21:31:39.716Z,96409.59
2022-09-11T21:34:12.613Z,96412.19
2022-09-11T21:36:45.523Z,96412.47
2022-09-11T21:39:18.282Z,96412.38
2022-09-11T21:41:51.174Z,96408.81
2022-09-11T21:44:24.227Z,96404.94
2022-09-11T21:46:58.590Z,96399.13
2022-09-11T21:49:31.420Z,96402.09
2022-09-11T21:52:04.276Z,96412.41
2022-09-11T21:54:37.137Z,96405.38
2022-09-11T21:57:10.029Z,96397.69
2022-09-11T21:59:42.775Z,96404.88
2022-09-11T22:02:18.007Z,96407.56
2022-09-11T22:04:51.392Z,96411.31
2022-09-11T22:07:24.401Z,96408.53
2022-09-11T22:09:57.237Z,96413.78
2022-09-11T22:12:30.117Z,96409.13
2022-09-11T22:15:03.378Z,96411.72
2022-09-11T22:17:37.624Z,96399.75
2022-09-11T22:20:11.566Z,96410.44
2022-09-11T22:22:44.792Z,96406.53
2022-09-11T22:25:17.680Z,96401.06
2022-09-11T22:27:50.490Z,96399.84
2022-09-11T22:30:23.860Z,96399.75
2022-09-11T22:32:59.852Z,96402.00
2022-09-11T22:35:35.617Z,96396.22
2022-09-11T22:38:08.485Z,96385.69
2022-09-11T22:40:41.352Z,96391.41
2022-09-11T22:43:14.200Z,96387.53
2022-09-11T22:45:51.090Z,96385.19
2022-09-11T22:48:25.743Z,96380.06
2022-09-11T22:50:59.468Z,96370.34
2022-09-11T22:53:32.729Z,96375.63
2022-09-11T22:56:05.622Z,96375.22
2022-09-11T22:58:39.381Z,96378.88
2022-09-11T23:01:17.571Z,96375.00
2022-09-11T23:03:54.515Z,96390.66
2022-09-11T23:06:45.291Z,96379.81
2022-09-11T23:09:18.403Z,96373.22
2022-09-11T23:11:51.555Z,96383.53
2022-09-11T23:14:24.751Z,96384.22
2022-09-11T23:17:00.017Z,96380.31
2022-09-11T23:19:35.374Z,96378.34
2022-09-11T23:22:08.177Z,96389.41
2022-09-11T23:24:41.195Z,96390.88
2022-09-11T23:27:14.072Z,96381.94
2022-09-11T23:29:48.517Z,96379.94
2022-09-11T23:32:21.673Z,96377.91
2022-09-11T23:34:56.055Z,96380.19
2022-09-11T23:37:29.015Z,96368.56
2022-09-11T23:40:02.327Z,96376.63
2022-09-11T23:42:37.514Z,96382.66
2022-09-11T23:45:12.775Z,96373.75
2022-09-11T23:47:45.565Z,96372.50
2022-09-11T23:50:20.756Z,96366.69
2022-09-11T23:52:53.520Z,96372.44
2022-09-11T23:55:26.393Z,96371.53
2022-09-11T23:57:59.373Z,96365.38
